Time;durP1;ratioP1;P1;durP2;ratioP2;P2;SDS_P1;SDS_P2;PMS_P1;PMS_P2;Temp;Humidity;BMP_temperature;BMP_pressure;BME280_temperature;BME280_humidity;BME280_pressure;Samples;Min_cycle;Max_cycle;Signal;HPM_P1;HPM_P2
2023/04/15 00:01:18;;;;;;;10.35;6.75;;;;;;;5.22;100.00;161931.19;5069852;28;20032;-56
2023/04/15 00:03:45;;;;;;;8.05;6.65;;;;;;;5.23;100.00;161935.22;5071410;28;20028;-56
2023/04/15 00:06:10;;;;;;;16.23;12.85;;;;;;;5.21;100.00;161928.50;5069593;28;20040;-56
2023/04/15 00:08:35;;;;;;;10.60;8.80;;;;;;;5.16;100.00;161915.06;5071138;28;20070;-56
2023/04/15 00:11:04;;;;;;;9.15;8.27;;;;;;;5.15;100.00;161912.38;5069047;28;20518;-56
2023/04/15 00:13:30;;;;;;;12.20;6.60;;;;;;;5.06;100.00;161890.84;5071245;28;20533;-56
2023/04/15 00:15:55;;;;;;;11.05;10.05;;;;;;;5.07;100.00;161893.53;5068579;28;20045;-56
2023/04/15 00:18:20;;;;;;;7.90;7.10;;;;;;;5.00;100.00;161874.72;5070994;28;20047;-56
2023/04/15 00:20:46;;;;;;;9.57;8.20;;;;;;;5.00;100.00;161874.72;5069454;28;20052;-56
2023/04/15 00:23:12;;;;;;;9.63;7.20;;;;;;;5.00;100.00;161873.34;5070716;28;20028;-56
2023/04/15 00:25:38;;;;;;;8.68;7.63;;;;;;;4.95;100.00;161861.28;5069254;28;20048;-56
2023/04/15 00:28:03;;;;;;;11.63;7.80;;;;;;;4.89;100.00;161845.09;5071012;28;20522;-56
2023/04/15 00:30:28;;;;;;;8.52;6.95;;;;;;;4.86;100.00;161837.06;5069447;28;20064;-56
2023/04/15 00:32:54;;;;;;;9.68;7.13;;;;;;;4.83;100.00;161828.97;5070297;28;20024;-56
2023/04/15 00:35:20;;;;;;;9.82;7.97;;;;;;;4.80;100.00;161820.94;5069336;28;20037;-57
2023/04/15 00:37:45;;;;;;;9.80;8.80;;;;;;;4.76;100.00;161812.84;5071063;28;20025;-56
2023/04/15 00:40:12;;;;;;;12.13;8.35;;;;;;;4.73;100.00;161804.75;5068883;28;20052;-56
2023/04/15 00:42:38;;;;;;;9.65;8.73;;;;;;;4.71;100.00;161799.41;5070985;28;20070;-56
2023/04/15 00:45:04;;;;;;;10.77;9.18;;;;;;;4.70;100.00;161796.72;5068964;28;20578;-56
2023/04/15 00:47:31;;;;;;;11.50;8.73;;;;;;;4.69;100.00;161794.03;5070579;28;20024;-56
2023/04/15 00:49:57;;;;;;;16.10;8.40;;;;;;;4.65;100.00;161783.28;5068854;28;20044;-56
2023/04/15 00:52:22;;;;;;;9.52;7.82;;;;;;;4.62;100.00;161775.22;5070600;28;20422;-56
2023/04/15 00:54:47;;;;;;;11.10;8.93;;;;;;;4.62;100.00;161775.22;5068982;28;20059;-57
2023/04/15 00:57:13;;;;;;;14.88;8.38;;;;;;;4.60;100.00;161769.81;5070496;28;20016;-56
2023/04/15 00:59:38;;;;;;;13.65;8.70;;;;;;;4.59;100.00;161767.13;5069293;28;20037;-56
2023/04/15 01:02:04;;;;;;;10.52;9.13;;;;;;;4.59;100.00;161767.13;5069906;28;20024;-56
2023/04/15 01:04:30;;;;;;;13.52;9.65;;;;;;;4.59;100.00;161767.13;5069159;28;20128;-56
2023/04/15 01:06:56;;;;;;;14.35;10.05;;;;;;;4.55;100.00;161756.38;5070386;28;20440;-56
2023/04/15 01:09:21;;;;;;;16.60;9.32;;;;;;;4.50;100.00;161742.97;5068904;28;20037;-56
2023/04/15 01:11:47;;;;;;;11.70;9.43;;;;;;;4.44;100.00;161729.47;5070584;28;20388;-56
2023/04/15 01:14:12;;;;;;;10.57;9.10;;;;;;;4.41;100.00;161721.44;5069020;28;20044;-56
2023/04/15 01:16:38;;;;;;;21.67;10.85;;;;;;;4.38;100.00;161713.34;5070023;28;20090;-56
2023/04/15 01:19:07;;;;;;;11.20;10.10;;;;;;;4.44;100.00;161729.47;5068885;28;20514;-56
2023/04/15 01:21:35;;;;;;;;;;;;;;;4.44;100.00;161729.47;5070764;28;20040;-56
2023/04/15 01:24:01;;;;;;;11.50;9.70;;;;;;;4.45;100.00;161732.19;5068238;28;19913;-56
2023/04/15 01:26:27;;;;;;;15.68;9.48;;;;;;;4.43;100.00;161725.47;5070586;28;20482;-56
2023/04/15 01:28:52;;;;;;;11.43;10.10;;;;;;;4.41;100.00;161720.06;5072446;28;20036;-54
2023/04/15 01:31:17;;;;;;;11.40;9.70;;;;;;;4.39;100.00;161716.06;5073978;28;20016;-57
2023/04/15 01:33:43;;;;;;;14.13;10.45;;;;;;;4.38;100.00;161713.34;5074141;28;20472;-57
2023/04/15 01:36:09;;;;;;;16.80;11.07;;;;;;;4.39;100.00;161716.06;5072274;28;20037;-56
2023/04/15 01:38:36;;;;;;;15.23;11.27;;;;;;;4.38;100.00;161713.34;5074165;28;20108;-56
2023/04/15 01:41:03;;;;;;;17.90;11.70;;;;;;;4.36;100.00;161707.97;5072385;28;20071;-56
2023/04/15 01:43:29;;;;;;;14.20;12.13;;;;;;;4.38;100.00;161713.34;5073798;28;20549;-56
2023/04/15 01:45:55;;;;;;;11.73;10.43;;;;;;;4.37;100.00;161709.34;5072244;28;20041;-57
2023/04/15 01:48:21;;;;;;;19.98;11.55;;;;;;;4.45;100.00;161732.19;5074152;28;20029;-56
2023/04/15 01:50:46;;;;;;;13.40;9.68;;;;;;;4.48;100.00;161737.56;5072132;28;20093;-56
2023/04/15 01:53:11;;;;;;;13.40;10.15;;;;;;;4.45;100.00;161732.19;5073474;28;20025;-56
2023/04/15 01:55:37;;;;;;;13.80;9.30;;;;;;;4.39;100.00;161716.06;5072469;28;20502;-57
2023/04/15 01:58:02;;;;;;;15.75;11.25;;;;;;;4.42;100.00;161724.13;5073364;28;20016;-56
2023/04/15 02:00:27;;;;;;;16.88;13.85;;;;;;;4.40;100.00;161717.38;5072155;28;20044;-56
2023/04/15 02:02:53;;;;;;;9.95;8.73;;;;;;;4.36;100.00;161707.97;5073485;28;20426;-56
2023/04/15 02:05:18;;;;;;;15.18;11.20;;;;;;;4.34;100.00;161702.63;5071999;28;20045;-56
2023/04/15 02:07:44;;;;;;;13.32;10.57;;;;;;;4.29;100.00;161689.16;5073070;28;20465;-56
2023/04/15 02:10:12;;;;;;;14.27;11.85;;;;;;;4.25;100.00;161678.41;5071754;28;20037;-56
2023/04/15 02:12:37;;;;;;;10.75;9.75;;;;;;;4.20;100.00;161665.00;5073467;28;20020;-56
2023/04/15 02:15:03;;;;;;;11.63;9.43;;;;;;;4.17;100.00;161656.91;5071613;28;20032;-56
2023/04/15 02:17:28;;;;;;;12.52;10.23;;;;;;;4.16;100.00;161654.22;5073455;28;20024;-56
2023/04/15 02:19:55;;;;;;;18.20;11.95;;;;;;;4.11;100.00;161643.47;5071568;28;20033;-56
2023/04/15 02:22:21;;;;;;;14.40;9.90;;;;;;;4.08;100.00;161635.41;5072757;28;20553;-56
2023/04/15 02:24:46;;;;;;;14.68;12.00;;;;;;;4.05;100.00;161627.38;5071716;28;20040;-56
2023/04/15 02:27:15;;;;;;;12.90;9.20;;;;;;;4.03;100.00;161621.97;5072984;28;20032;-56
2023/04/15 02:29:42;;;;;;;11.80;10.55;;;;;;;4.01;100.00;161616.59;5071533;28;20115;-56
2023/04/15 02:32:07;;;;;;;12.48;11.15;;;;;;;3.96;100.00;161603.16;5073102;28;20063;-56
2023/04/15 02:34:32;;;;;;;16.02;10.82;;;;;;;3.94;100.00;161597.78;5071519;28;20028;-56
2023/04/15 02:36:58;;;;;;;12.88;11.50;;;;;;;3.92;100.00;161592.38;5072585;28;20060;-56
2023/04/15 02:39:23;;;;;;;13.50;11.98;;;;;;;3.92;100.00;161592.38;5070422;28;20064;-56
2023/04/15 02:41:51;;;;;;;12.55;11.32;;;;;;;3.83;100.00;161569.56;5072961;28;20025;-56
2023/04/15 02:44:19;;;;;;;15.88;13.23;;;;;;;3.90;100.00;161588.38;5071501;28;20059;-56
2023/04/15 02:46:49;;;;;;;17.33;13.05;;;;;;;3.96;100.00;161603.16;5072769;28;20055;-56
2023/04/15 02:49:15;;;;;;;15.27;10.77;;;;;;;3.95;100.00;161600.47;5071291;28;20044;-56
2023/04/15 02:51:40;;;;;;;15.52;12.63;;;;;;;3.91;100.00;161589.75;5072800;28;20082;-56
2023/04/15 02:54:06;;;;;;;14.73;12.73;;;;;;;3.91;100.00;161589.75;5070814;28;20096;-56
2023/04/15 02:56:32;;;;;;;17.17;14.32;;;;;;;3.91;100.00;161591.06;5072643;28;20029;-56
2023/04/15 02:58:57;;;;;;;14.93;12.05;;;;;;;3.91;100.00;161591.06;5071027;28;20029;-56
2023/04/15 03:01:23;;;;;;;22.65;14.38;;;;;;;3.90;100.00;161587.03;5072478;28;20012;-56
2023/04/15 03:03:48;;;;;;;13.90;11.25;;;;;;;3.87;100.00;161580.28;5072277;28;20025;-56
2023/04/15 03:06:13;;;;;;;16.60;13.95;;;;;;;3.83;100.00;161568.22;5070801;28;20040;-56
2023/04/15 03:08:39;;;;;;;18.85;15.27;;;;;;;3.80;100.00;161562.84;5072220;28;20021;-56
2023/04/15 03:11:04;;;;;;;16.92;12.90;;;;;;;3.75;100.00;161548.03;5070752;28;20045;-56
2023/04/15 03:13:30;;;;;;;15.27;13.52;;;;;;;3.70;100.00;161535.94;5072229;28;20471;-56
2023/04/15 03:15:55;;;;;;;17.98;12.15;;;;;;;3.63;100.00;161518.50;5070301;28;20048;-56
2023/04/15 03:18:20;;;;;;;16.92;13.75;;;;;;;3.60;100.00;161509.09;5072231;28;20043;-57
2023/04/15 03:20:46;;;;;;;16.17;13.60;;;;;;;3.58;100.00;161503.72;5070790;28;20060;-56
2023/04/15 03:23:11;;;;;;;18.40;16.20;;;;;;;3.59;100.00;161506.41;5071572;28;20082;-56
2023/04/15 03:25:37;;;;;;;22.67;15.88;;;;;;;3.58;100.00;161503.72;5070604;28;20040;-56
2023/04/15 03:28:02;;;;;;;19.38;15.43;;;;;;;3.56;100.00;161498.34;5072103;28;20020;-56
2023/04/15 03:30:28;;;;;;;20.70;16.35;;;;;;;3.53;100.00;161490.31;5069977;28;20098;-56
2023/04/15 03:32:53;;;;;;;18.05;15.75;;;;;;;3.53;100.00;161490.31;5071724;28;20025;-56
2023/04/15 03:35:18;;;;;;;19.35;14.88;;;;;;;3.48;100.00;161479.53;5070806;28;20050;-56
2023/04/15 03:37:44;;;;;;;18.35;16.48;;;;;;;3.46;100.00;161474.13;5071631;28;20499;-56
2023/04/15 03:40:09;;;;;;;19.40;14.45;;;;;;;3.44;100.00;161468.81;5070160;28;20396;-56
2023/04/15 03:42:35;;;;;;;17.27;15.48;;;;;;;3.42;100.00;161462.09;5071972;28;20028;-56
2023/04/15 03:45:00;;;;;;;20.73;15.25;;;;;;;3.43;100.00;161466.09;5069752;28;20040;-56
2023/04/15 03:47:25;;;;;;;22.05;16.48;;;;;;;3.41;100.00;161460.72;5071483;28;20028;-56
2023/04/15 03:49:51;;;;;;;19.45;14.60;;;;;;;3.38;100.00;161452.69;5070066;28;20037;-56
2023/04/15 03:52:16;;;;;;;21.08;15.23;;;;;;;3.28;100.00;161425.81;5071204;28;20017;-56
2023/04/15 03:54:42;;;;;;;20.88;16.00;;;;;;;3.29;100.00;161428.50;5070345;28;20036;-56
2023/04/15 03:57:07;;;;;;;21.52;15.70;;;;;;;3.28;100.00;161425.81;5071406;28;20043;-56
2023/04/15 03:59:32;;;;;;;20.52;17.10;;;;;;;3.26;100.00;161420.41;5069632;28;20087;-56
2023/04/15 04:01:58;;;;;;;19.70;15.00;;;;;;;3.26;100.00;161420.41;5071365;28;20384;-56
2023/04/15 04:04:23;;;;;;;21.05;16.73;;;;;;;3.31;100.00;161433.88;5069929;28;20041;-56
2023/04/15 04:06:49;;;;;;;20.67;16.35;;;;;;;3.32;100.00;161436.53;5070971;28;20016;-56
2023/04/15 04:09:14;;;;;;;19.52;15.82;;;;;;;3.32;100.00;161436.53;5069553;28;20040;-56
2023/04/15 04:11:39;;;;;;;23.52;17.27;;;;;;;3.31;100.00;161433.88;5071098;28;20035;-56
2023/04/15 04:14:05;;;;;;;18.45;15.48;;;;;;;3.37;100.00;161450.00;5069347;28;20024;-56
2023/04/15 04:16:30;;;;;;;23.02;16.58;;;;;;;3.37;100.00;161448.63;5071487;28;20047;-56
2023/04/15 04:18:56;;;;;;;22.08;18.20;;;;;;;3.34;100.00;161441.91;5069544;28;20044;-56
2023/04/15 04:21:21;;;;;;;24.45;18.30;;;;;;;3.31;100.00;161433.88;5070444;28;20526;-56
2023/04/15 04:23:46;;;;;;;28.88;19.67;;;;;;;3.31;100.00;161433.88;5071407;28;20051;-56
2023/04/15 04:26:12;;;;;;;23.23;17.98;;;;;;;3.31;100.00;161433.88;5069408;28;20041;-56
2023/04/15 04:28:39;;;;;;;26.27;17.77;;;;;;;3.28;100.00;161427.13;5070664;28;20033;-57
2023/04/15 04:31:05;;;;;;;21.48;17.27;;;;;;;3.24;100.00;161415.09;5069298;28;20049;-57
2023/04/15 04:33:31;;;;;;;22.05;17.98;;;;;;;3.26;100.00;161420.41;5070847;28;20021;-56
2023/04/15 04:35:56;;;;;;;21.83;16.80;;;;;;;3.28;100.00;161425.81;5068696;28;20037;-56
2023/04/15 04:38:21;;;;;;;22.10;19.73;;;;;;;3.26;100.00;161420.41;5071039;28;20361;-56
2023/04/15 04:40:47;;;;;;;26.67;20.00;;;;;;;3.32;100.00;161436.53;5069299;28;20044;-56
2023/04/15 04:43:13;;;;;;;30.67;21.27;;;;;;;3.42;100.00;161463.41;5070445;28;20037;-57
2023/04/15 04:45:39;;;;;;;28.55;21.65;;;;;;;3.49;100.00;161480.91;5069142;28;20564;-56
2023/04/15 04:48:05;;;;;;;25.52;22.77;;;;;;;3.50;100.00;161483.53;5070576;28;20024;-56
2023/04/15 04:50:31;;;;;;;28.55;21.50;;;;;;;3.49;100.00;161482.22;5068921;28;20555;-56
2023/04/15 04:52:56;;;;;;;35.78;24.80;;;;;;;3.51;100.00;161484.91;5070419;28;20039;-57
2023/04/15 04:55:22;;;;;;;33.60;23.25;;;;;;;3.53;100.00;161490.31;5069275;28;20036;-56
2023/04/15 04:57:47;;;;;;;28.55;22.13;;;;;;;3.55;100.00;161495.63;5070160;28;20471;-56
2023/04/15 05:00:12;;;;;;;23.33;18.98;;;;;;;3.54;100.00;161494.31;5069026;28;20040;-56
2023/04/15 05:02:38;;;;;;;26.67;21.42;;;;;;;3.59;100.00;161506.41;5072425;28;20031;-56
2023/04/15 05:05:03;;;;;;;36.55;26.83;;;;;;;3.60;100.00;161509.09;5072815;28;20446;-57
2023/04/15 05:07:29;;;;;;;22.80;18.70;;;;;;;3.60;100.00;161510.44;5074712;28;20020;-56
2023/04/15 05:09:54;;;;;;;27.20;19.55;;;;;;;3.59;100.00;161506.41;5072869;28;20056;-56
2023/04/15 05:12:20;;;;;;;23.98;20.92;;;;;;;3.58;100.00;161503.72;5074772;28;20028;-56
2023/04/15 05:14:45;;;;;;;20.40;17.27;;;;;;;3.60;100.00;161510.44;5073197;28;20528;-56
2023/04/15 05:17:11;;;;;;;37.45;21.25;;;;;;;3.61;100.00;161511.81;5074376;28;20028;-56
2023/04/15 05:19:36;;;;;;;26.17;21.90;;;;;;;3.63;100.00;161517.13;5073196;28;20089;-56
2023/04/15 05:22:02;;;;;;;32.15;21.17;;;;;;;3.65;100.00;161522.53;5073688;28;20059;-56
2023/04/15 05:24:27;;;;;;;22.83;19.00;;;;;;;3.66;100.00;161525.22;5073109;28;20122;-56
2023/04/15 05:26:52;;;;;;;25.13;20.25;;;;;;;3.70;100.00;161535.94;5074765;28;20028;-56
2023/04/15 05:29:18;;;;;;;31.73;22.42;;;;;;;3.71;100.00;161538.63;5072557;28;20037;-56
2023/04/15 05:31:43;;;;;;;22.38;17.75;;;;;;;3.62;100.00;161514.44;5074210;28;20035;-56
2023/04/15 05:34:10;;;;;;;25.60;18.33;;;;;;;3.79;100.00;161558.81;5072612;28;20020;-56
2023/04/15 05:36:36;;;;;;;29.73;18.92;;;;;;;3.83;100.00;161568.22;5073617;28;20060;-56
2023/04/15 05:39:01;;;;;;;27.45;20.80;;;;;;;3.86;100.00;161576.25;5072590;28;20055;-56
2023/04/15 05:41:26;;;;;;;32.83;23.45;;;;;;;3.88;100.00;161582.97;5074119;28;20031;-56
2023/04/15 05:43:52;;;;;;;26.17;20.73;;;;;;;3.91;100.00;161589.75;5073487;28;20029;-56
2023/04/15 05:46:17;;;;;;;22.75;18.10;;;;;;;3.94;100.00;161597.78;5072505;28;20032;-56
2023/04/15 05:48:42;;;;;;;24.33;20.70;;;;;;;3.98;100.00;161608.53;5073983;28;20039;-56
2023/04/15 05:51:08;;;;;;;26.90;19.60;;;;;;;4.04;100.00;161624.66;5071678;28;20040;-56
2023/04/15 05:53:33;;;;;;;23.00;20.02;;;;;;;4.11;100.00;161643.47;5073954;28;20491;-56
2023/04/15 05:55:59;;;;;;;22.40;20.00;;;;;;;4.19;100.00;161662.31;5072195;28;20090;-56
2023/04/15 05:58:24;;;;;;;21.85;18.38;;;;;;;4.27;100.00;161683.81;5073531;28;20028;-56
2023/04/15 06:00:50;;;;;;;26.63;19.25;;;;;;;4.38;100.00;161713.34;5072047;28;20040;-56
2023/04/15 06:03:15;;;;;;;29.98;20.83;;;;;;;4.51;100.00;161745.59;5073534;28;20016;-56
2023/04/15 06:05:41;;;;;;;19.73;17.63;;;;;;;4.60;100.00;161769.81;5071852;28;20037;-56
2023/04/15 06:08:07;;;;;;;22.80;20.05;;;;;;;4.71;100.00;161799.41;5073139;28;20027;-56
2023/04/15 06:10:35;;;;;;;26.98;21.88;;;;;;;4.82;100.00;161827.66;5071862;28;20063;-57
2023/04/15 06:13:02;;;;;;;25.88;22.17;;;;;;;4.93;100.00;161857.22;5072583;28;20487;-56
2023/04/15 06:15:28;;;;;;;30.83;21.67;;;;;;;5.07;100.00;161893.53;5072315;28;20119;-56
2023/04/15 06:17:53;;;;;;;24.55;21.50;;;;;;;5.20;100.00;161925.81;5073328;28;20634;-56
2023/04/15 06:20:19;;;;;;;23.63;19.77;;;;;;;5.27;100.00;161943.31;5071319;28;20060;-57
2023/04/15 06:22:44;;;;;;;24.08;19.15;;;;;;;5.34;100.00;161963.47;5073614;28;20031;-56
2023/04/15 06:25:09;;;;;;;26.67;21.13;;;;;;;5.32;100.00;161956.75;5070259;28;20499;-56
2023/04/15 06:27:35;;;;;;;29.60;23.88;;;;;;;5.52;100.00;162010.56;5072783;28;20051;-56
2023/04/15 06:30:00;;;;;;;29.30;22.23;;;;;;;5.58;100.00;162024.03;5071569;28;20036;-56
2023/04/15 06:32:26;;;;;;;29.85;21.83;;;;;;;5.61;100.00;162033.47;5073180;28;20486;-56
2023/04/15 06:34:51;;;;;;;28.95;20.40;;;;;;;5.72;100.00;162061.72;5071125;28;20183;-56
2023/04/15 06:37:16;;;;;;;29.15;18.60;;;;;;;5.82;100.00;162087.25;5073014;28;20491;-56
2023/04/15 06:39:42;;;;;;;22.38;18.45;;;;;;;5.84;100.00;162092.66;5071597;28;20072;-57
2023/04/15 06:42:08;;;;;;;26.05;17.55;;;;;;;5.91;100.00;162111.50;5072554;28;20031;-57
2023/04/15 06:44:34;;;;;;;27.63;21.83;;;;;;;5.95;100.00;162122.25;5071398;28;20071;-56
2023/04/15 06:47:00;;;;;;;26.45;17.70;;;;;;;6.08;100.00;162155.94;5072665;28;20016;-56
2023/04/15 06:49:25;;;;;;;25.33;17.98;;;;;;;6.16;100.00;162176.13;5071003;28;20037;-56
2023/04/15 06:51:51;;;;;;;21.40;18.58;;;;;;;6.17;100.00;162180.19;5072579;28;20017;-57
2023/04/15 06:54:17;;;;;;;21.17;16.63;;;;;;;6.25;100.00;162200.34;5071273;28;20036;-56
2023/04/15 06:56:42;;;;;;;24.92;18.25;;;;;;;6.40;100.00;162238.03;5072361;28;20020;-57
2023/04/15 06:59:07;;;;;;;20.85;16.88;;;;;;;6.51;100.00;162267.69;5070952;28;20430;-56
2023/04/15 07:01:33;;;;;;;24.02;19.90;;;;;;;6.56;100.00;162281.13;5072383;28;20073;-56
2023/04/15 07:03:58;;;;;;;19.17;15.07;;;;;;;6.61;100.00;162294.56;5070437;28;20029;-56
2023/04/15 07:06:24;;;;;;;20.50;15.40;;;;;;;6.71;100.00;162318.81;5072565;28;20029;-56
2023/04/15 07:08:50;;;;;;;19.25;14.85;;;;;;;6.81;100.00;162347.09;5072581;28;20035;-56
2023/04/15 07:11:16;;;;;;;14.10;12.50;;;;;;;6.81;100.00;162345.78;5070153;28;20037;-56
2023/04/15 07:13:41;;;;;;;17.98;15.40;;;;;;;6.96;100.00;162386.13;5072417;28;20024;-56
2023/04/15 07:16:07;;;;;;;19.38;13.50;;;;;;;7.05;100.00;162407.66;5070535;28;20425;-57
2023/04/15 07:18:33;;;;;;;18.02;14.63;;;;;;;7.13;100.00;162430.59;5072099;28;20021;-56
2023/04/15 07:20:58;;;;;;;18.95;15.23;;;;;;;7.30;100.00;162475.03;5070387;28;20059;-56
2023/04/15 07:23:24;;;;;;;15.23;13.43;;;;;;;7.51;100.00;162527.59;5072152;28;20021;-57
2023/04/15 07:25:49;;;;;;;17.50;13.98;;;;;;;7.51;100.00;162528.91;5069786;28;20047;-56
2023/04/15 07:28:14;;;;;;;19.48;14.00;;;;;;;7.61;100.00;162555.88;5071952;28;20025;-56
2023/04/15 07:30:40;;;;;;;20.83;15.25;;;;;;;7.80;100.00;162604.34;5070554;28;20036;-56
2023/04/15 07:33:05;;;;;;;19.08;14.70;;;;;;;8.02;100.00;162660.94;5071355;28;20025;-56
2023/04/15 07:35:32;;;;;;;17.25;14.38;;;;;;;8.03;100.00;162665.00;5070407;28;20498;-56
2023/04/15 07:37:57;;;;;;;19.08;14.98;;;;;;;8.05;100.00;162669.03;5071754;28;20074;-57
2023/04/15 07:40:22;;;;;;;15.60;13.30;;;;;;;8.20;100.00;162709.47;5070164;28;20438;-56
2023/04/15 07:42:48;;;;;;;20.98;14.40;;;;;;;8.08;100.00;162677.09;5071976;28;20029;-56
2023/04/15 07:45:14;;;;;;;18.90;16.15;;;;;;;7.88;100.00;162625.91;5069715;28;20036;-56
2023/04/15 07:47:40;;;;;;;15.68;13.50;;;;;;;7.79;100.00;162601.66;5071719;28;20028;-56
2023/04/15 07:50:07;;;;;;;17.40;12.95;;;;;;;7.74;100.00;162588.19;5069946;28;20123;-56
2023/04/15 07:52:37;;;;;;;16.67;12.38;;;;;;;8.02;100.00;162660.94;5071662;28;20021;-56
2023/04/15 07:55:09;;;;;;;15.38;13.30;;;;;;;8.21;100.00;162712.19;5069983;28;20044;-56
2023/04/15 07:57:35;;;;;;;14.25;12.73;;;;;;;8.28;100.00;162728.34;5071800;28;20051;-56
2023/04/15 08:00:02;;;;;;;17.77;12.70;;;;;;;8.37;100.00;162752.63;5070031;28;20037;-56
2023/04/15 08:02:28;;;;;;;18.98;13.68;;;;;;;8.24;100.00;162720.25;5071378;28;20502;-56
2023/04/15 08:04:53;;;;;;;19.73;14.45;;;;;;;8.25;100.00;162722.94;5069393;28;20040;-56
2023/04/15 08:07:19;;;;;;;15.10;13.50;;;;;;;8.30;100.00;162733.75;5069747;28;20059;-56
2023/04/15 08:09:45;;;;;;;15.90;13.00;;;;;;;8.21;100.00;162712.19;5069923;28;20037;-56
2023/04/15 08:12:12;;;;;;;14.93;12.68;;;;;;;8.28;100.00;162728.34;5070769;28;20025;-56
2023/04/15 08:14:37;;;;;;;16.80;13.15;;;;;;;8.61;100.00;162816.00;5069666;28;20522;-56
2023/04/15 08:17:03;;;;;;;14.40;12.57;;;;;;;8.72;100.00;162844.31;5070937;28;20016;-56
2023/04/15 08:19:29;;;;;;;14.63;12.48;;;;;;;8.79;100.00;162863.19;5069610;28;20499;-56
2023/04/15 08:21:54;;;;;;;15.50;12.57;;;;;;;8.98;100.00;162911.72;5070583;28;20064;-56
2023/04/15 08:24:20;;;;;;;17.10;12.75;;;;;;;9.09;100.00;162941.41;5069685;28;20036;-56
2023/04/15 08:26:46;;;;;;;17.17;12.52;;;;;;;8.95;100.00;162903.66;5070737;28;20024;-56
2023/04/15 08:29:11;;;;;;;17.55;12.55;;;;;;;8.87;100.00;162884.78;5069602;28;20025;-57
2023/04/15 08:31:36;;;;;;;12.48;10.80;;;;;;;8.46;100.00;162776.84;5070886;28;20020;-57
2023/04/15 08:34:02;;;;;;;12.23;10.93;;;;;;;8.45;100.00;162774.13;5068908;28;20016;-57
2023/04/15 08:36:28;;;;;;;12.35;11.00;;;;;;;8.32;100.00;162739.09;5070198;28;20025;-57
2023/04/15 08:38:53;;;;;;;13.57;12.05;;;;;;;8.21;100.00;162710.81;5070875;28;20082;-57
2023/04/15 08:41:23;;;;;;;12.48;11.18;;;;;;;8.24;100.00;162720.25;5069038;28;20045;-57
2023/04/15 08:44:07;;;;;;;12.38;10.93;;;;;;;8.48;100.00;162782.28;5070785;28;20036;-57
2023/04/15 08:46:33;;;;;;;18.33;14.18;;;;;;;8.82;100.00;162871.31;5069712;28;20035;-57
2023/04/15 08:48:59;;;;;;;15.20;11.00;;;;;;;8.69;100.00;162836.22;5069377;28;20029;-56
2023/04/15 08:51:26;;;;;;;14.35;11.32;;;;;;;8.66;100.00;162828.16;5070598;28;20103;-57
2023/04/15 08:53:51;;;;;;;12.00;9.90;;;;;;;8.63;100.00;162820.03;5070693;28;20513;-57
2023/04/15 08:56:19;;;;;;;12.57;9.98;;;;;;;8.59;100.00;162809.28;5068951;28;20049;-57
2023/04/15 08:58:45;;;;;;;12.02;10.75;;;;;;;8.57;100.00;162806.56;5070987;28;20039;-57
2023/04/15 09:01:12;;;;;;;9.93;8.90;;;;;;;8.83;100.00;162873.94;5069324;28;20046;-57
2023/04/15 09:03:38;;;;;;;9.68;8.63;;;;;;;8.64;100.00;162822.75;5070261;28;20069;-57
2023/04/15 09:06:05;;;;;;;10.90;9.20;;;;;;;8.82;100.00;162871.31;5068949;28;20032;-57
2023/04/15 09:08:30;;;;;;;10.15;9.13;;;;;;;8.69;100.00;162837.59;5070774;28;20383;-57
2023/04/15 09:10:56;;;;;;;8.35;7.15;;;;;;;8.78;100.00;162860.50;5068390;28;20051;-57
2023/04/15 09:13:21;;;;;;;16.15;9.75;;;;;;;8.88;100.00;162886.09;5070615;28;20032;-57
2023/04/15 09:15:47;;;;;;;8.75;7.85;;;;;;;9.05;100.00;162930.59;5069188;28;20041;-57
2023/04/15 09:18:13;;;;;;;8.25;7.40;;;;;;;9.03;100.00;162925.22;5070178;28;20027;-57
2023/04/15 09:20:41;;;;;;;10.95;8.57;;;;;;;9.19;100.00;162967.00;5068781;28;20052;-57
2023/04/15 09:23:13;;;;;;;11.80;9.50;;;;;;;9.70;100.00;163100.56;5070680;28;20048;-57
2023/04/15 09:25:41;;;;;;;9.40;8.48;;;;;;;10.20;100.00;163230.06;5068655;28;20131;-57
2023/04/15 09:28:07;;;;;;;10.77;6.32;;;;;;;10.40;100.00;163284.09;5070617;28;20028;-57
2023/04/15 09:30:33;;;;;;;8.90;6.03;;;;;;;10.06;100.00;163193.63;5069017;28;20422;-57
2023/04/15 09:33:01;;;;;;;7.88;5.78;;;;;;;9.63;100.00;163081.69;5069991;28;20035;-57
2023/04/15 09:35:27;;;;;;;9.32;6.78;;;;;;;9.31;100.00;162998.03;5068999;28;20045;-57
2023/04/15 09:38:00;;;;;;;7.25;5.70;;;;;;;9.04;100.00;162927.94;5070157;28;20025;-57
2023/04/15 09:40:37;;;;;;;9.98;7.22;;;;;;;9.13;100.00;162950.84;5068677;28;20044;-57
2023/04/15 09:43:04;;;;;;;6.57;5.72;;;;;;;9.11;100.00;162946.81;5070267;28;20028;-57
2023/04/15 09:45:31;;;;;;;5.38;4.88;;;;;;;8.99;100.00;162915.78;5068693;28;20055;-57
2023/04/15 09:47:57;;;;;;;10.25;5.28;;;;;;;8.89;100.00;162888.81;5070275;28;20067;-57
2023/04/15 09:50:27;;;;;;;6.90;4.75;;;;;;;8.81;100.00;162868.59;5072372;28;20668;-57
2023/04/15 09:52:53;;;;;;;8.70;6.57;;;;;;;8.96;100.00;162906.34;5074408;28;20024;-57
2023/04/15 09:55:18;;;;;;;9.02;6.65;;;;;;;9.06;100.00;162933.28;5072080;28;20044;-57
2023/04/15 09:57:46;;;;;;;6.57;5.13;;;;;;;8.98;100.00;162911.72;5074181;28;20032;-57
2023/04/15 10:00:12;;;;;;;8.77;6.55;;;;;;;9.05;100.00;162930.59;5071982;28;20036;-57
2023/04/15 10:02:41;;;;;;;6.65;5.50;;;;;;;8.89;100.00;162888.81;5073526;28;20424;-57
2023/04/15 10:05:09;;;;;;;10.88;8.43;;;;;;;8.74;100.00;162849.72;5072213;28;20165;-57
2023/04/15 10:07:35;;;;;;;7.13;6.43;;;;;;;8.75;100.00;162852.38;5073920;28;20024;-57
2023/04/15 10:10:02;;;;;;;9.93;7.90;;;;;;;8.74;100.00;162849.72;5071392;28;20399;-57
2023/04/15 10:12:28;;;;;;;7.80;7.10;;;;;;;8.72;100.00;162844.31;5073889;28;20024;-57
2023/04/15 10:15:04;;;;;;;12.63;6.72;;;;;;;8.73;100.00;162848.34;5071814;28;20059;-57
2023/04/15 10:17:34;;;;;;;19.45;8.02;;;;;;;8.65;100.00;162825.44;5073056;28;20388;-57
2023/04/15 10:20:04;;;;;;;8.02;7.25;;;;;;;8.80;100.00;162865.91;5071618;28;20033;-57
2023/04/15 10:22:30;;;;;;;6.80;5.75;;;;;;;9.09;100.00;162940.03;5073369;28;20024;-56
2023/04/15 10:24:56;;;;;;;6.13;5.38;;;;;;;9.19;100.00;162968.38;5071284;28;20049;-57
2023/04/15 10:27:23;;;;;;;7.65;5.60;;;;;;;9.31;100.00;162998.03;5073199;28;20024;-57
2023/04/15 10:29:50;;;;;;;6.93;6.22;;;;;;;9.50;100.00;163049.28;5072003;28;20036;-57
2023/04/15 10:32:20;;;;;;;6.45;5.07;;;;;;;9.72;100.00;163104.59;5072537;28;20024;-57
2023/04/15 10:34:47;;;;;;;5.63;4.70;;;;;;;9.98;100.00;163173.41;5071753;28;20087;-57
2023/04/15 10:37:22;;;;;;;7.00;4.32;;;;;;;10.13;100.00;163212.50;5072796;28;20047;-57
2023/04/15 10:39:47;;;;;;;7.43;4.25;;;;;;;10.03;100.00;163185.56;5071686;28;20033;-57
2023/04/15 10:42:15;;;;;;;10.10;5.97;;;;;;;10.22;100.00;163235.47;5073048;28;20029;-57
2023/04/15 10:44:43;;;;;;;7.40;5.67;;;;;;;10.10;100.00;163205.78;5071671;28;20041;-57
2023/04/15 10:47:11;;;;;;;3.75;3.42;;;;;;;9.91;100.00;163155.84;5072220;28;20032;-57
2023/04/15 10:49:44;;;;;;;8.43;6.27;;;;;;;9.60;100.00;163073.56;5071701;28;20047;-57
2023/04/15 10:52:09;;;;;;;8.18;4.90;;;;;;;9.37;100.00;163014.22;5072507;28;20411;-57
2023/04/15 10:54:37;;;;;;;5.88;5.13;;;;;;;9.26;100.00;162984.56;5071168;28;20085;-57
2023/04/15 10:57:02;;;;;;;4.65;4.22;;;;;;;9.40;100.00;163020.94;5072420;28;20078;-58
2023/04/15 10:59:32;;;;;;;4.93;4.43;;;;;;;9.45;100.00;163035.81;5070521;28;20119;-57
2023/04/15 11:02:16;;;;;;;4.22;3.83;;;;;;;9.60;100.00;163074.94;5072123;28;20069;-57
2023/04/15 11:04:57;;;;;;;8.60;4.18;;;;;;;9.66;100.00;163089.75;5071117;28;20544;-57
2023/04/15 11:07:49;;;;;;;4.68;4.28;;;;;;;9.31;100.00;162998.03;5072687;28;20056;-57
2023/04/15 11:10:17;;;;;;;4.72;4.03;;;;;;;9.16;100.00;162960.28;5070728;28;20126;-58